createdAt,value
2023-04-12T02:54:30.483Z,3.03
2023-04-12T02:56:37.192Z,3.00
2023-04-12T02:58:40.877Z,3.00
2023-04-12T03:00:46.818Z,3.28
2023-04-12T03:03:09.095Z,3.13
2023-04-12T03:05:12.742Z,2.88
2023-04-12T03:07:17.161Z,2.97
2023-04-12T03:09:20.456Z,3.17
2023-04-12T03:11:27.336Z,3.07
2023-04-12T03:13:30.810Z,2.90
2023-04-12T03:26:06.337Z,3.42
2023-04-12T03:28:11.433Z,3.40
2023-04-12T03:30:15.519Z,4.03
2023-04-12T03:32:20.947Z,3.70
2023-04-12T03:34:24.243Z,3.95
2023-04-12T03:36:29.619Z,4.03
2023-04-12T03:38:33.996Z,4.50
2023-04-12T03:40:37.543Z,4.43
2023-04-12T03:42:41.040Z,4.28
2023-04-12T03:53:02.761Z,4.40
2023-04-12T03:55:07.907Z,4.65
2023-04-12T03:57:11.912Z,4.72
2023-04-12T03:59:26.860Z,5.32
2023-04-12T04:01:30.680Z,4.70
2023-04-12T04:03:35.023Z,4.95
2023-04-12T04:05:38.974Z,5.00
2023-04-12T04:07:42.672Z,5.00
2023-04-12T04:09:47.659Z,5.25
2023-04-12T04:11:51.793Z,4.65
2023-04-12T04:13:55.799Z,8.00
2023-04-12T04:16:03.513Z,4.93
2023-04-12T04:18:07.182Z,5.68
2023-04-12T04:20:13.828Z,4.97
2023-04-12T04:22:17.880Z,5.30
2023-04-12T04:24:22.651Z,5.00
2023-04-12T04:26:32.622Z,5.53
2023-04-12T04:28:37.481Z,4.57
2023-04-12T04:30:41.322Z,4.80
2023-04-12T04:34:45.684Z,4.72
2023-04-12T04:36:49.466Z,4.88
2023-04-12T04:38:53.055Z,5.20
2023-04-12T04:40:56.722Z,4.90
2023-04-12T04:43:41.183Z,5.30
2023-04-12T04:45:48.930Z,5.80
2023-04-12T04:47:53.936Z,4.93
2023-04-12T04:50:14.405Z,5.15
2023-04-12T04:52:18.430Z,4.70
2023-04-12T05:02:31.919Z,3.72
2023-04-12T05:04:36.235Z,4.03
2023-04-12T05:06:39.804Z,4.70
2023-04-12T05:08:43.505Z,4.20
2023-04-12T05:11:42.566Z,4.32
2023-04-12T05:13:46.767Z,4.10
2023-04-12T05:15:50.124Z,4.30
2023-04-12T05:17:54.974Z,3.90
2023-04-12T05:19:59.444Z,3.73
2023-04-12T05:22:03.328Z,3.70
2023-04-12T05:24:07.356Z,3.47
2023-04-12T05:26:10.961Z,3.53
2023-04-12T05:28:27.883Z,3.22
2023-04-12T05:30:31.778Z,3.60
2023-04-12T05:32:49.086Z,3.57
2023-04-12T05:37:30.993Z,2.85
2023-04-12T05:39:35.429Z,2.90
2023-04-12T05:41:40.735Z,2.35
2023-04-12T05:43:44.785Z,2.67
2023-04-12T05:45:50.156Z,2.90
2023-04-12T05:47:53.802Z,2.50
2023-04-12T05:49:58.840Z,2.70
2023-04-12T05:52:03.121Z,2.20
2023-04-12T05:54:09.677Z,2.33
2023-04-12T05:56:13.585Z,2.45
2023-04-12T05:58:38.034Z,2.37
2023-04-12T06:00:42.511Z,2.43
2023-04-12T06:07:37.014Z,2.87
2023-04-12T06:14:00.866Z,2.50
2023-04-12T06:16:25.452Z,2.50
2023-04-12T06:19:11.173Z,2.67
2023-04-12T06:21:16.194Z,2.67
2023-04-12T06:23:19.915Z,2.50
2023-04-12T06:25:24.108Z,2.53
2023-04-12T06:27:27.805Z,2.25
2023-04-12T06:29:52.548Z,2.10
2023-04-12T06:32:04.036Z,2.80
2023-04-12T06:34:11.362Z,2.30
2023-04-12T06:36:29.821Z,2.28
2023-04-12T06:38:33.398Z,2.08
2023-04-12T06:40:37.194Z,2.30
2023-04-12T06:42:47.401Z,2.47
2023-04-12T06:44:51.680Z,2.05
2023-04-12T06:54:51.272Z,1.90
2023-04-12T06:59:38.566Z,2.30
2023-04-12T07:01:54.031Z,1.98
2023-04-12T07:04:06.874Z,1.97
2023-04-12T07:06:25.066Z,1.77
2023-04-12T07:08:31.729Z,1.83
2023-04-12T07:11:35.440Z,2.00
2023-04-12T07:13:40.071Z,2.13
2023-04-12T07:15:44.288Z,1.83
2023-04-12T07:20:20.662Z,2.10
2023-04-12T07:22:25.866Z,1.98
2023-04-12T07:24:31.615Z,1.77
2023-04-12T07:26:36.921Z,2.00
2023-04-12T07:28:41.793Z,2.17
2023-04-12T07:33:18.407Z,2.20
2023-04-12T07:38:07.559Z,2.00
2023-04-12T07:40:18.738Z,1.83
2023-04-12T07:44:41.569Z,2.05
2023-04-12T07:49:21.084Z,1.80
2023-04-12T07:53:42.957Z,1.70
2023-04-12T08:04:22.987Z,2.10
2023-04-12T08:14:23.816Z,1.90
2023-04-12T08:19:12.167Z,2.05
2023-04-12T08:29:36.439Z,1.90
2023-04-12T08:31:47.654Z,2.15
2023-04-12T08:33:53.868Z,1.80
2023-04-12T08:46:52.386Z,2.30
2023-04-12T09:04:25.382Z,2.13
2023-04-12T09:06:31.031Z,2.30
2023-04-12T09:10:56.963Z,2.70
2023-04-12T09:13:02.325Z,2.30
2023-04-12T09:23:33.240Z,2.33
2023-04-12T09:25:52.183Z,2.35
2023-04-12T09:30:24.665Z,3.15
2023-04-12T09:32:28.725Z,2.20
2023-04-12T09:34:36.769Z,2.33
2023-04-12T09:36:42.465Z,2.42
2023-04-12T09:39:05.187Z,2.35
2023-04-12T09:41:27.179Z,3.15
2023-04-12T09:43:39.971Z,2.10
2023-04-12T09:45:45.064Z,2.55
2023-04-12T09:48:01.355Z,2.00
2023-04-12T09:52:32.340Z,2.65
2023-04-12T09:54:56.283Z,2.92
2023-04-12T09:57:00.495Z,2.70
2023-04-12T09:59:19.605Z,2.75
2023-04-12T10:03:46.175Z,2.45
2023-04-12T10:05:50.071Z,2.65
2023-04-12T10:07:55.292Z,2.90
2023-04-12T10:10:00.251Z,3.28
2023-04-12T10:12:04.468Z,2.70
2023-04-12T10:14:08.670Z,2.95
2023-04-12T10:16:12.192Z,3.28
2023-04-12T10:18:20.144Z,3.05
2023-04-12T10:20:28.213Z,3.35
2023-04-12T10:22:33.413Z,3.45
2023-04-12T10:24:40.681Z,3.50
2023-04-12T10:27:04.291Z,3.97
2023-04-12T10:29:29.916Z,3.53
2023-04-12T10:31:37.373Z,3.80
2023-04-12T10:33:43.327Z,4.07
2023-04-12T10:35:57.836Z,4.00
2023-04-12T10:38:04.201Z,4.70
2023-04-12T10:40:09.438Z,4.03
2023-04-12T10:42:23.210Z,4.05
2023-04-12T10:44:27.612Z,4.35
2023-04-12T10:51:42.037Z,4.68
2023-04-12T10:53:46.933Z,5.15
2023-04-12T10:55:50.919Z,4.22
2023-04-12T10:57:54.841Z,4.85
2023-04-12T10:59:59.744Z,5.20
2023-04-12T11:02:13.104Z,4.82
2023-04-12T11:04:18.728Z,4.55
2023-04-12T11:06:27.422Z,4.30
2023-04-12T11:08:31.521Z,4.70
2023-04-12T11:10:42.773Z,5.07
2023-04-12T11:12:50.723Z,5.05
2023-04-12T11:14:54.744Z,5.32
2023-04-12T11:17:23.935Z,5.00
2023-04-12T11:19:28.015Z,5.20
2023-04-12T11:21:32.994Z,4.82
2023-04-12T11:25:39.565Z,5.20
2023-04-12T11:27:52.699Z,5.15
2023-04-12T11:29:58.085Z,5.38
2023-04-12T11:34:20.229Z,5.25
2023-04-12T11:36:28.341Z,5.78
2023-04-12T11:38:33.904Z,8.02
2023-04-12T11:40:37.669Z,6.78
2023-04-12T11:42:42.206Z,6.32
2023-04-12T12:05:49.154Z,5.38
2023-04-12T12:07:54.777Z,6.30
2023-04-12T12:09:58.388Z,4.85
2023-04-12T12:12:03.364Z,6.20
2023-04-12T12:14:08.409Z,7.10
2023-04-12T12:16:13.466Z,5.45
2023-04-12T12:18:16.975Z,6.85
2023-04-12T12:20:24.659Z,6.45
2023-04-12T12:22:28.620Z,4.80
2023-04-12T12:24:35.426Z,7.18
2023-04-12T12:26:40.655Z,4.10
2023-04-12T12:28:44.974Z,4.65
2023-04-12T12:30:48.622Z,5.40
2023-04-12T12:32:53.403Z,4.75
2023-04-12T12:34:57.747Z,3.90
2023-04-12T12:37:01.786Z,4.90
2023-04-12T12:39:07.581Z,3.65
2023-04-12T12:41:19.308Z,3.38
2023-04-12T12:43:24.082Z,4.30
2023-04-12T12:48:00.675Z,3.97
2023-04-12T12:50:10.153Z,4.28
2023-04-12T12:52:15.250Z,4.07
2023-04-12T12:54:38.693Z,3.30
2023-04-12T12:56:46.516Z,2.92
2023-04-12T12:58:52.651Z,3.30
2023-04-12T13:00:56.456Z,3.28
2023-04-12T13:03:00.505Z,3.75
2023-04-12T13:05:05.317Z,3.45
2023-04-12T13:07:09.639Z,3.30
2023-04-12T13:09:13.163Z,3.83
2023-04-12T13:11:18.409Z,2.97
2023-04-12T13:13:25.680Z,3.15
2023-04-12T13:15:29.940Z,3.30
2023-04-12T13:17:33.546Z,2.47
2023-04-12T13:19:37.095Z,3.30
2023-04-12T13:21:48.714Z,3.20
2023-04-12T13:23:56.260Z,4.70
2023-04-12T13:25:59.924Z,3.50
2023-04-12T13:28:04.100Z,3.83
2023-04-12T13:30:10.588Z,2.15
2023-04-12T13:32:14.389Z,3.80
2023-04-12T13:34:18.055Z,2.53
2023-04-12T13:36:26.823Z,2.28
2023-04-12T13:38:30.126Z,2.60
2023-04-12T13:40:33.509Z,3.20
2023-04-12T13:42:37.031Z,4.30
2023-04-12T13:44:58.078Z,4.00
2023-04-12T13:47:25.993Z,3.83
2023-04-12T13:49:33.471Z,3.50
2023-04-12T13:51:48.301Z,4.50
2023-04-12T13:53:51.962Z,3.15
2023-04-12T13:55:55.430Z,2.85
2023-04-12T13:57:58.804Z,2.60
2023-04-12T14:00:02.360Z,2.67
2023-04-12T14:02:06.175Z,4.10
2023-04-12T14:04:12.669Z,2.25
2023-04-12T14:06:16.258Z,1.77
2023-04-12T14:08:19.575Z,2.22
2023-04-12T14:10:23.296Z,2.00
2023-04-12T14:12:26.805Z,1.70
2023-04-12T14:14:35.654Z,2.10
2023-04-12T14:16:39.241Z,1.75
2023-04-12T14:18:42.807Z,1.40
2023-04-12T14:20:49.477Z,1.85
2023-04-12T14:22:54.671Z,2.08
2023-04-12T14:24:58.353Z,1.83
2023-04-12T14:27:02.587Z,2.03
2023-04-12T14:29:06.492Z,2.00
2023-04-12T14:31:10.367Z,1.58
2023-04-12T14:33:14.159Z,1.80
2023-04-12T14:35:18.428Z,1.83
2023-04-12T14:37:23.430Z,1.65
2023-04-12T14:39:28.345Z,2.38
2023-04-12T14:41:31.932Z,2.13
2023-04-12T14:43:35.696Z,2.00
2023-04-12T14:45:39.289Z,2.15
2023-04-12T14:47:42.806Z,1.70
2023-04-12T14:49:48.061Z,1.92
2023-04-12T14:51:51.441Z,1.42
2023-04-12T14:53:57.046Z,1.70
2023-04-12T14:56:02.652Z,1.40
2023-04-12T14:58:06.512Z,1.52
2023-04-12T15:00:15.495Z,1.63
2023-04-12T15:02:20.993Z,1.40
2023-04-12T15:04:26.071Z,1.35
2023-04-12T15:06:33.959Z,1.30
2023-04-12T15:08:41.885Z,1.23
2023-04-12T15:10:47.302Z,1.10
2023-04-12T15:12:51.128Z,1.10
2023-04-12T15:14:57.746Z,1.17
2023-04-12T15:17:01.316Z,1.27
2023-04-12T15:19:13.076Z,1.30
2023-04-12T15:21:21.493Z,1.60
2023-04-12T15:30:11.090Z,1.70
2023-04-12T15:32:15.359Z,1.70
2023-04-12T15:34:19.616Z,1.35
2023-04-12T15:36:35.589Z,1.20
2023-04-12T15:38:42.431Z,1.50
2023-04-12T15:40:46.361Z,1.30
2023-04-12T15:42:50.196Z,1.38
2023-04-12T15:44:53.915Z,1.10
2023-04-12T15:47:10.344Z,0.98
2023-04-12T15:49:15.070Z,0.88
2023-04-12T15:51:18.684Z,0.85
2023-04-12T15:53:23.792Z,1.00
2023-04-12T15:55:27.330Z,0.70
2023-04-12T15:57:30.898Z,0.80
2023-04-12T15:59:34.499Z,0.60
2023-04-12T16:01:38.222Z,0.70
2023-04-12T16:03:47.368Z,0.50
2023-04-12T16:05:53.935Z,0.50
2023-04-12T16:07:58.146Z,0.40
2023-04-12T16:10:03.484Z,0.40
2023-04-12T16:12:07.612Z,0.55
2023-04-12T16:14:12.004Z,0.38
2023-04-12T16:16:17.636Z,0.50
2023-04-12T16:18:21.452Z,0.50
2023-04-12T16:20:26.574Z,0.40
2023-04-12T16:22:30.272Z,0.30
2023-04-12T16:24:33.968Z,0.30
2023-04-12T16:26:37.604Z,0.40
2023-04-12T16:28:44.331Z,0.40
2023-04-12T16:30:49.741Z,0.65
2023-04-12T16:32:54.130Z,0.60
2023-04-12T16:34:58.096Z,0.40
2023-04-12T16:37:03.692Z,0.43
2023-04-12T16:39:07.445Z,0.57
2023-04-12T16:41:10.874Z,0.70
2023-04-12T16:43:14.649Z,0.63
2023-04-12T16:45:18.408Z,0.50
2023-04-12T16:47:22.130Z,0.70
2023-04-12T16:49:25.965Z,0.55
2023-04-12T16:51:36.847Z,0.80
2023-04-12T16:53:42.803Z,0.60
2023-04-12T16:55:47.470Z,0.60
2023-04-12T16:57:53.257Z,0.80
2023-04-12T16:59:57.566Z,0.60
2023-04-12T17:02:01.760Z,0.60
2023-04-12T17:04:05.465Z,0.60
2023-04-12T17:06:09.174Z,0.63
2023-04-12T17:08:13.098Z,0.85
2023-04-12T17:10:18.549Z,0.60
2023-04-12T17:12:22.250Z,0.55
2023-04-12T17:14:26.009Z,0.68
2023-04-12T17:16:31.017Z,1.00
2023-04-12T17:18:34.854Z,0.63
2023-04-12T17:20:38.230Z,0.80
2023-04-12T17:22:42.297Z,0.60
2023-04-12T17:24:46.427Z,0.70
2023-04-12T17:26:51.754Z,0.80
2023-04-12T17:28:56.194Z,0.90
2023-04-12T17:30:59.954Z,0.60
2023-04-12T17:33:03.706Z,0.80
2023-04-12T17:35:08.315Z,0.93
2023-04-12T17:37:11.937Z,0.90
2023-04-12T17:39:15.545Z,0.82
2023-04-12T17:41:21.578Z,0.70
2023-04-12T17:43:26.602Z,0.73
2023-04-12T17:45:30.417Z,0.73
2023-04-12T17:47:34.699Z,0.68
2023-04-12T17:49:38.527Z,0.50
2023-04-12T17:51:41.948Z,0.77
2023-04-12T17:53:45.912Z,0.80
2023-04-12T17:55:50.692Z,0.85
2023-04-12T17:57:54.572Z,1.60
2023-04-12T18:00:01.219Z,1.48
2023-04-12T18:02:04.875Z,1.73
2023-04-12T18:04:08.795Z,4.57
2023-04-12T18:06:13.596Z,1.30
2023-04-12T18:08:17.842Z,1.70
2023-04-12T18:10:25.867Z,0.80
2023-04-12T18:12:29.476Z,0.90
2023-04-12T18:14:33.226Z,0.80
2023-04-12T18:16:38.493Z,0.80
2023-04-12T18:18:42.198Z,0.93
2023-04-12T18:20:47.605Z,0.75
2023-04-12T18:22:51.186Z,0.82
2023-04-12T18:24:55.306Z,1.10
2023-04-12T18:27:00.248Z,0.90
2023-04-12T18:29:03.848Z,1.20
2023-04-12T18:31:07.427Z,0.90
2023-04-12T18:33:12.506Z,0.90
2023-04-12T18:35:16.526Z,1.10
2023-04-12T18:37:20.233Z,1.10
2023-04-12T18:39:23.939Z,1.55
2023-04-12T18:41:27.900Z,1.20
2023-04-12T18:43:31.786Z,1.00
2023-04-12T18:45:39.504Z,0.70
2023-04-12T18:47:44.960Z,0.70
2023-04-12T18:49:50.748Z,0.50
2023-04-12T18:51:58.271Z,0.85
2023-04-12T18:54:03.028Z,0.60
2023-04-12T18:56:10.290Z,0.55
2023-04-12T18:58:13.675Z,0.70
2023-04-12T19:00:18.565Z,0.68
2023-04-12T19:02:34.458Z,0.52
2023-04-12T19:04:39.246Z,0.60
2023-04-12T19:06:44.721Z,0.60
2023-04-12T19:08:49.838Z,0.70
2023-04-12T19:10:53.532Z,0.60
2023-04-12T19:13:21.641Z,0.63
2023-04-12T19:15:25.152Z,0.60
2023-04-12T19:17:28.825Z,0.63
2023-04-12T19:19:32.359Z,0.60
2023-04-12T19:21:35.836Z,0.75
2023-04-12T19:23:40.812Z,0.55
2023-04-12T19:25:44.334Z,0.60
2023-04-12T19:27:47.962Z,0.60
2023-04-12T19:29:52.359Z,0.60
2023-04-12T19:31:56.302Z,0.60
2023-04-12T19:33:59.902Z,0.57
2023-04-12T19:36:15.542Z,0.60
2023-04-12T19:38:20.429Z,0.60
2023-04-12T19:40:25.617Z,0.60
2023-04-12T19:42:29.478Z,0.60
2023-04-12T19:44:33.201Z,0.80
2023-04-12T19:46:39.142Z,0.60
2023-04-12T19:48:42.831Z,0.90
2023-04-12T19:50:48.534Z,0.77
2023-04-12T19:52:52.375Z,0.70
2023-04-12T19:54:57.214Z,0.63
2023-04-12T19:57:03.358Z,0.82
2023-04-12T19:59:11.020Z,0.68
2023-04-12T20:01:16.146Z,0.63
2023-04-12T20:03:21.904Z,0.50
2023-04-12T20:05:25.815Z,0.95
2023-04-12T20:07:29.905Z,1.10
2023-04-12T20:09:33.590Z,1.33
2023-04-12T20:11:37.386Z,1.20
2023-04-12T20:13:42.537Z,1.38
2023-04-12T20:15:46.255Z,0.90
2023-04-12T20:18:32.956Z,1.13
2023-04-12T20:20:36.581Z,1.00
2023-04-12T20:22:41.268Z,1.00
2023-04-12T20:24:47.508Z,1.03
2023-04-12T20:26:51.742Z,1.30
2023-04-12T20:28:57.088Z,1.30
2023-04-12T20:31:01.019Z,1.13
2023-04-12T20:33:05.406Z,1.50
2023-04-12T20:35:09.766Z,1.03
2023-04-12T20:37:15.915Z,0.90
2023-04-12T20:39:19.440Z,1.17
2023-04-12T20:41:23.118Z,1.47
2023-04-12T20:43:27.412Z,1.40
2023-04-12T20:45:32.858Z,1.13
2023-04-12T20:47:38.173Z,1.10
2023-04-12T20:49:42.574Z,1.50
2023-04-12T20:51:46.921Z,1.30
2023-04-12T20:54:03.088Z,1.50
2023-04-12T20:56:07.366Z,1.58
2023-04-12T20:58:12.295Z,1.30
2023-04-12T21:00:18.066Z,1.40
2023-04-12T21:02:27.099Z,1.30
2023-04-12T21:04:32.424Z,1.10
2023-04-12T21:06:37.537Z,1.30
2023-04-12T21:08:43.638Z,0.90
2023-04-12T21:10:53.372Z,1.30
2023-04-12T21:12:58.448Z,1.20
2023-04-12T21:15:03.524Z,1.27
2023-04-12T21:17:07.456Z,1.37
2023-04-12T21:19:13.073Z,1.20
2023-04-12T21:21:16.552Z,1.50
2023-04-12T21:23:20.154Z,1.40
2023-04-12T21:25:26.008Z,1.30
2023-04-12T21:27:30.015Z,1.57
2023-04-12T21:29:34.603Z,1.57
2023-04-12T21:31:41.746Z,1.70
2023-04-12T21:33:45.598Z,1.80
2023-04-12T21:35:50.811Z,1.43
2023-04-12T21:37:54.380Z,1.40
2023-04-12T21:39:58.177Z,1.20
2023-04-12T21:42:01.767Z,1.40
2023-04-12T21:44:12.558Z,1.57
2023-04-12T21:46:18.407Z,1.40
2023-04-12T21:48:22.314Z,1.37
2023-04-12T21:50:26.123Z,1.47
2023-04-12T21:52:31.256Z,1.50
2023-04-12T21:54:36.945Z,1.50
2023-04-12T21:56:40.454Z,1.10
2023-04-12T21:58:44.458Z,0.97
2023-04-12T22:00:48.467Z,1.10
2023-04-12T22:03:05.632Z,1.20
2023-04-12T22:05:09.891Z,1.35
2023-04-12T22:07:17.768Z,1.00
2023-04-12T22:09:24.790Z,1.00
2023-04-12T22:11:29.812Z,1.10
2023-04-12T22:13:35.109Z,1.10
2023-04-12T22:15:38.683Z,0.98
2023-04-12T22:17:42.672Z,1.20
2023-04-12T22:19:46.445Z,1.20
2023-04-12T22:21:49.963Z,1.20
2023-04-12T22:24:13.685Z,1.03
2023-04-12T22:26:18.659Z,0.90
2023-04-12T22:28:22.500Z,1.00
2023-04-12T22:30:26.181Z,1.00
2023-04-12T22:32:32.282Z,1.07
2023-04-12T22:35:13.698Z,0.90
2023-04-12T22:37:17.433Z,1.00
2023-04-12T22:39:21.341Z,1.03
2023-04-12T22:41:46.941Z,1.10
2023-04-12T22:43:50.693Z,1.23
2023-04-12T22:45:54.583Z,1.10
2023-04-12T22:47:58.077Z,1.07
2023-04-12T22:50:03.412Z,1.13
2023-04-12T22:52:07.263Z,1.00
2023-04-12T22:54:10.792Z,1.17
2023-04-12T22:56:14.659Z,1.00
2023-04-12T22:58:19.790Z,1.20
2023-04-12T23:00:25.120Z,0.90
2023-04-12T23:02:35.046Z,1.17
2023-04-12T23:04:38.843Z,1.10
2023-04-12T23:06:43.162Z,1.10
2023-04-12T23:08:46.906Z,1.00
2023-04-12T23:10:50.985Z,1.40
2023-04-12T23:12:54.890Z,1.17
2023-04-12T23:15:00.262Z,1.37
2023-04-12T23:17:03.979Z,0.93
2023-04-12T23:19:07.912Z,1.00
2023-04-12T23:21:12.205Z,1.00
2023-04-12T23:23:15.944Z,1.10
2023-04-12T23:35:29.823Z,1.20
2023-04-12T23:37:34.273Z,1.33
2023-04-12T23:39:37.921Z,1.10
2023-04-12T23:41:42.239Z,1.17
2023-04-12T23:43:57.409Z,1.30
2023-04-12T23:46:01.192Z,1.23
2023-04-12T23:48:05.690Z,1.30
2023-04-12T23:50:10.001Z,1.50
2023-04-12T23:52:15.013Z,1.00
2023-04-12T23:54:18.771Z,1.30
